Time;durP1;ratioP1;P1;durP2;ratioP2;P2;SDS_P1;SDS_P2;PMS_P1;PMS_P2;Temp;Humidity;BMP_temperature;BMP_pressure;BME280_temperature;BME280_humidity;BME280_pressure;Samples;Min_cycle;Max_cycle;Signal;HPM_P1;HPM_P2
2023/03/04 00:00:28;;;;;;;0.25;0.25;;;;;;;10.71;53.68;95141.28;5049045;28;20594;-61
2023/03/04 00:02:55;;;;;;;0.32;0.32;;;;;;;10.87;53.63;95139.59;5055075;28;20671;-61
2023/03/04 00:05:22;;;;;;;0.95;0.88;;;;;;;10.86;53.54;95133.56;5063772;28;20206;-62
2023/03/04 00:07:49;;;;;;;3.45;1.25;;;;;;;10.98;53.41;95136.00;5051006;28;20585;-62
2023/03/04 00:10:16;;;;;;;1.50;0.80;;;;;;;10.79;53.92;95130.38;5049037;28;20201;-61
2023/03/04 00:12:43;;;;;;;0.82;0.82;;;;;;;11.07;53.15;95135.31;5048625;28;20570;-61
2023/03/04 00:15:10;;;;;;;0.15;0.15;;;;;;;10.96;53.24;95132.84;5048533;28;20272;-62
2023/03/04 00:17:38;;;;;;;0.00;0.00;;;;;;;11.36;52.63;95120.00;5059231;28;20204;-63
2023/03/04 00:20:05;;;;;;;0.20;0.20;;;;;;;11.66;51.26;95116.75;5068304;28;20770;-61
2023/03/04 00:22:32;;;;;;;0.77;0.77;;;;;;;11.87;51.05;95108.69;5063402;28;20262;-61
2023/03/04 00:24:59;;;;;;;0.53;0.53;;;;;;;11.94;51.01;95108.44;5062382;28;20286;-62
2023/03/04 00:27:26;;;;;;;1.55;1.08;;;;;;;11.86;50.95;95101.84;5048470;28;21020;-63
2023/03/04 00:29:54;;;;;;;0.73;0.73;;;;;;;11.87;50.95;95113.16;5049985;28;20671;-61
2023/03/04 00:32:21;;;;;;;3.25;0.45;;;;;;;11.76;51.11;95109.72;5048796;28;20461;-62
2023/03/04 00:34:48;;;;;;;0.00;0.00;;;;;;;11.84;50.90;95109.19;5049598;28;20199;-62
2023/03/04 00:37:18;;;;;;;1.50;0.83;;;;;;;11.79;51.25;95105.75;5052116;28;21332;-64
2023/03/04 00:39:45;;;;;;;0.10;0.10;;;;;;;11.67;50.89;95116.50;5069178;28;20464;-63
2023/03/04 00:42:11;;;;;;;0.47;0.40;;;;;;;11.70;50.90;95109.94;5060663;28;20443;-63
2023/03/04 00:44:38;;;;;;;0.20;0.20;;;;;;;11.86;50.86;95116.84;5064752;28;20527;-63
2023/03/04 00:47:05;;;;;;;0.50;0.50;;;;;;;12.01;50.20;95114.25;5051539;28;20554;-63
2023/03/04 00:49:32;;;;;;;0.20;0.20;;;;;;;11.61;51.06;95109.63;5049722;28;20487;-63
2023/03/04 00:51:59;;;;;;;1.03;0.80;;;;;;;11.76;50.67;95116.78;5048501;28;20976;-62
2023/03/04 00:54:26;;;;;;;0.20;0.20;;;;;;;11.71;50.55;95114.94;5048288;28;20439;-61
2023/03/04 00:56:53;;;;;;;0.47;0.47;;;;;;;11.75;50.47;95088.97;5061830;28;20854;-63
2023/03/04 00:59:20;;;;;;;2.22;1.33;;;;;;;11.65;50.33;95088.91;5058502;28;20439;-63
2023/03/04 01:01:47;;;;;;;0.33;0.33;;;;;;;11.25;51.47;95094.75;5066639;28;20273;-62
2023/03/04 01:04:16;;;;;;;0.20;0.20;;;;;;;11.03;52.25;95101.94;5057372;28;20445;-62
2023/03/04 01:06:43;;;;;;;1.37;0.40;;;;;;;11.33;51.79;95103.97;5053330;28;20455;-63
2023/03/04 01:09:11;;;;;;;4.10;1.27;;;;;;;11.64;51.01;95108.31;5048717;28;21052;-64
2023/03/04 01:11:37;;;;;;;0.45;0.40;;;;;;;11.43;51.16;95106.63;5046973;28;20443;-63
2023/03/04 01:14:04;;;;;;;0.77;0.77;;;;;;;11.27;52.08;95107.59;5061564;28;20712;-62
2023/03/04 01:16:31;;;;;;;0.93;0.83;;;;;;;11.00;51.93;95103.25;5048265;28;20199;-64
2023/03/04 01:18:58;;;;;;;0.53;0.53;;;;;;;11.27;51.59;95103.16;5053980;28;20482;-62
2023/03/04 01:21:25;;;;;;;0.40;0.37;;;;;;;10.90;52.42;95097.94;5058257;28;20450;-61
2023/03/04 01:23:51;;;;;;;0.20;0.20;;;;;;;11.41;51.04;95077.22;5047347;28;20455;-61
2023/03/04 01:26:18;;;;;;;2.57;1.30;;;;;;;11.27;51.67;95086.63;5057376;28;20479;-61
2023/03/04 01:28:46;;;;;;;0.93;0.50;;;;;;;11.29;51.20;95098.44;5048495;28;20514;-63
2023/03/04 01:31:13;;;;;;;0.57;0.57;;;;;;;11.33;51.30;95085.59;5048057;28;20467;-64
2023/03/04 01:33:39;;;;;;;0.50;0.50;;;;;;;11.50;51.36;95086.19;5062790;28;20454;-63
2023/03/04 01:36:08;;;;;;;0.00;0.00;;;;;;;11.57;50.44;95089.41;5049507;28;20258;-64
2023/03/04 01:38:35;;;;;;;0.37;0.37;;;;;;;11.33;50.28;95052.28;5068465;28;20473;-62
2023/03/04 01:41:02;;;;;;;0.30;0.30;;;;;;;11.49;51.04;95084.63;5050785;28;20467;-62
2023/03/04 01:43:30;;;;;;;0.20;0.20;;;;;;;11.60;50.36;95075.75;5061161;28;20462;-62
2023/03/04 01:45:57;;;;;;;0.63;0.63;;;;;;;11.37;50.64;95071.72;5051378;28;20439;-62
2023/03/04 01:48:28;;;;;;;0.00;0.00;;;;;;;11.18;50.60;95071.34;5050469;28;20478;-63
2023/03/04 01:50:58;;;;;;;0.73;0.60;;;;;;;11.30;50.63;95070.34;5050414;28;20304;-62
2023/03/04 01:53:26;;;;;;;0.50;0.50;;;;;;;11.31;50.92;95057.00;5068604;28;20446;-63
2023/03/04 01:55:56;;;;;;;0.43;0.43;;;;;;;11.18;51.02;95053.00;5053576;28;20543;-62
2023/03/04 01:58:29;;;;;;;0.30;0.30;;;;;;;11.31;50.60;95067.50;5056425;28;20454;-62
2023/03/04 02:00:57;;;;;;;0.83;0.83;;;;;;;11.45;50.35;95059.94;5050454;28;20504;-61
2023/03/04 02:03:24;;;;;;;0.90;0.67;;;;;;;11.54;49.98;95066.28;5060924;28;20471;-62
2023/03/04 02:05:54;;;;;;;0.10;0.10;;;;;;;11.33;50.94;95064.63;5049992;28;20447;-62
2023/03/04 02:08:23;;;;;;;0.82;0.82;;;;;;;10.64;51.49;95051.63;5060582;28;20273;-62
2023/03/04 02:10:51;;;;;;;0.00;0.00;;;;;;;11.19;51.11;95070.31;5058475;28;20197;-62
2023/03/04 02:13:18;;;;;;;0.40;0.40;;;;;;;11.08;50.86;95063.44;5054940;28;20596;-62
2023/03/04 02:15:46;;;;;;;0.50;0.50;;;;;;;10.83;51.09;95065.13;5062091;28;20188;-63
2023/03/04 02:18:24;;;;;;;0.53;0.30;;;;;;;10.95;50.82;95034.25;5063252;28;20500;-62
2023/03/04 02:21:09;;;;;;;0.52;0.52;;;;;;;11.29;50.61;95059.09;5050893;28;20447;-62
2023/03/04 02:23:54;;;;;;;0.47;0.47;;;;;;;11.03;51.19;95060.78;5051367;28;20228;-61
2023/03/04 02:26:25;;;;;;;0.35;0.20;;;;;;;11.08;51.13;95063.44;5050811;28;20204;-62
2023/03/04 02:28:56;;;;;;;0.60;0.60;;;;;;;11.03;50.95;95065.25;5060029;28;20212;-62
2023/03/04 02:31:38;;;;;;;2.33;1.47;;;;;;;10.93;51.56;95060.72;5062166;28;20192;-62
2023/03/04 02:34:11;;;;;;;1.67;1.15;;;;;;;10.40;53.00;95055.63;5053956;28;20444;-62
2023/03/04 02:36:39;;;;;;;0.15;0.15;;;;;;;10.61;52.67;95062.59;5068485;28;20199;-61
2023/03/04 02:39:20;;;;;;;0.75;0.75;;;;;;;11.05;51.76;95063.97;5052741;28;20675;-60
2023/03/04 02:41:51;;;;;;;0.00;0.00;;;;;;;11.21;50.89;95056.94;5049722;28;20205;-61
2023/03/04 02:44:28;;;;;;;0.08;0.08;;;;;;;10.93;51.43;95050.22;5049649;28;20243;-62
2023/03/04 02:46:57;;;;;;;0.90;0.90;;;;;;;11.18;50.99;95053.00;5055899;28;20206;-61
2023/03/04 02:49:28;;;;;;;6.55;1.42;;;;;;;11.05;51.20;95048.22;5056859;28;20224;-62
2023/03/04 02:52:18;;;;;;;0.43;0.43;;;;;;;11.10;50.74;95039.59;5052158;28;20682;-62
2023/03/04 02:54:45;;;;;;;1.85;1.65;;;;;;;11.07;50.96;95040.91;5066407;28;20211;-62
2023/03/04 02:57:13;;;;;;;0.50;0.45;;;;;;;11.27;50.16;95013.16;5049220;28;20788;-62
2023/03/04 02:59:44;;;;;;;0.57;0.57;;;;;;;11.36;50.69;95040.50;5057278;28;20546;-62
2023/03/04 03:02:16;;;;;;;1.88;1.70;;;;;;;10.98;51.07;95047.63;5048798;28;20270;-62
2023/03/04 03:04:43;;;;;;;0.00;0.00;;;;;;;10.86;51.54;95038.38;5050386;28;20208;-62
2023/03/04 03:07:12;;;;;;;0.10;0.10;;;;;;;11.30;50.35;95049.38;5050939;28;20909;-63
2023/03/04 03:09:40;;;;;;;1.08;1.08;;;;;;;11.34;50.25;95046.00;5061064;28;20220;-61
2023/03/04 03:12:07;;;;;;;1.50;1.40;;;;;;;10.67;51.51;95045.88;5068617;28;20246;-63
2023/03/04 03:14:34;;;;;;;1.92;1.20;;;;;;;10.32;52.66;95053.47;5052397;28;20199;-61
2023/03/04 03:17:03;;;;;;;1.10;0.68;;;;;;;10.97;51.28;95051.31;5059086;28;20200;-62
2023/03/04 03:19:30;;;;;;;0.15;0.15;;;;;;;11.03;51.14;95050.31;5056092;28;20709;-63
2023/03/04 03:21:58;;;;;;;0.15;0.15;;;;;;;11.38;50.47;95051.53;5057383;28;20639;-62
2023/03/04 03:24:26;;;;;;;0.00;0.00;;;;;;;10.79;51.06;95056.97;5049056;28;20204;-64
2023/03/04 03:26:53;;;;;;;1.02;0.77;;;;;;;11.12;50.82;95051.41;5057444;28;20230;-61
2023/03/04 03:29:21;;;;;;;0.32;0.32;;;;;;;11.10;50.58;95053.50;5064168;28;20242;-62
2023/03/04 03:31:47;;;;;;;1.08;1.00;;;;;;;11.27;50.20;95048.06;5059001;28;20212;-63
2023/03/04 03:34:14;;;;;;;0.25;0.25;;;;;;;11.48;49.76;95039.22;5055585;28;20749;-62
2023/03/04 03:36:41;;;;;;;0.28;0.28;;;;;;;11.54;49.53;95029.53;5049540;28;20206;-61
2023/03/04 03:39:09;;;;;;;0.98;0.82;;;;;;;11.61;49.34;95024.81;5049803;28;20189;-63
2023/03/04 03:41:35;;;;;;;0.53;0.53;;;;;;;11.32;49.80;95037.59;5059369;28;20655;-62
2023/03/04 03:44:03;;;;;;;0.10;0.10;;;;;;;11.31;50.13;95024.75;5064233;28;20439;-61
2023/03/04 03:46:29;;;;;;;0.50;0.50;;;;;;;11.34;50.12;95030.25;5055858;28;20697;-63
2023/03/04 03:48:56;;;;;;;0.70;0.70;;;;;;;11.16;49.76;95023.63;5060455;28;20228;-62
2023/03/04 03:51:23;;;;;;;0.65;0.65;;;;;;;11.37;49.63;95039.47;5050212;28;20287;-61
2023/03/04 03:53:50;;;;;;;0.40;0.38;;;;;;;11.12;49.69;95033.06;5050657;28;20200;-61
2023/03/04 03:56:17;;;;;;;0.10;0.10;;;;;;;11.21;49.34;95031.53;5049331;28;20246;-61
2023/03/04 03:58:43;;;;;;;0.35;0.20;;;;;;;11.12;49.66;95021.75;5050443;28;20189;-61
2023/03/04 04:01:10;;;;;;;0.15;0.15;;;;;;;11.18;49.71;95016.28;5054580;28;20199;-63
2023/03/04 04:03:37;;;;;;;1.58;1.48;;;;;;;11.36;49.42;95022.91;5059825;28;20273;-61
2023/03/04 04:06:04;;;;;;;2.10;1.40;;;;;;;11.10;49.59;95014.16;5054821;28;20211;-62
2023/03/04 04:08:32;;;;;;;0.60;0.33;;;;;;;11.05;49.57;95014.13;5055417;28;20276;-64
2023/03/04 04:10:59;;;;;;;0.30;0.30;;;;;;;10.92;49.58;95003.31;5054160;28;20462;-61
2023/03/04 04:13:25;;;;;;;1.20;1.20;;;;;;;11.08;49.43;95021.47;5049415;28;20283;-63
2023/03/04 04:15:53;;;;;;;0.55;0.40;;;;;;;11.05;49.57;95022.00;5049737;28;20457;-62
2023/03/04 04:18:20;;;;;;;0.65;0.65;;;;;;;10.77;50.19;94998.78;5065168;28;20264;-62
2023/03/04 04:20:47;;;;;;;5.63;0.93;;;;;;;11.01;49.57;95023.56;5061002;28;20255;-61
2023/03/04 04:23:14;;;;;;;0.50;0.50;;;;;;;10.84;49.85;95015.06;5057505;28;20231;-62
2023/03/04 04:25:40;;;;;;;0.68;0.68;;;;;;;10.88;49.90;95016.13;5051589;28;20943;-62
2023/03/04 04:28:07;;;;;;;3.10;2.58;;;;;;;10.73;50.23;95017.88;5050073;28;20251;-62
2023/03/04 04:30:34;;;;;;;0.65;0.65;;;;;;;10.59;50.27;95028.00;5048658;28;20219;-62
2023/03/04 04:33:03;;;;;;;1.10;1.10;;;;;;;10.17;51.61;95029.78;5049250;28;20257;-61
2023/03/04 04:35:35;;;;;;;0.00;0.00;;;;;;;9.67;53.08;95016.19;5056543;28;20661;-61
2023/03/04 04:38:02;;;;;;;0.20;0.20;;;;;;;9.45;53.85;95033.72;5059139;28;20204;-62
2023/03/04 04:40:28;;;;;;;0.50;0.50;;;;;;;9.28;54.49;95031.19;5057350;28;20204;-61
2023/03/04 04:42:55;;;;;;;0.20;0.20;;;;;;;9.80;53.49;95023.63;5065560;28;20690;-61
2023/03/04 04:45:26;;;;;;;0.20;0.20;;;;;;;10.15;52.35;95032.63;5054544;28;20192;-63
2023/03/04 04:47:56;;;;;;;0.47;0.47;;;;;;;9.88;52.44;94999.63;5054306;28;20197;-62
2023/03/04 04:50:26;;;;;;;0.43;0.40;;;;;;;10.45;51.33;95021.63;5052345;28;20211;-62
2023/03/04 04:52:53;;;;;;;0.20;0.20;;;;;;;10.46;51.04;95023.19;5058687;28;20197;-62
2023/03/04 04:55:20;;;;;;;0.75;0.75;;;;;;;10.60;50.79;95023.56;5051152;28;20547;-62
2023/03/04 04:57:47;;;;;;;0.35;0.35;;;;;;;10.83;50.32;95034.47;5065311;28;20244;-62
2023/03/04 05:00:14;;;;;;;0.95;0.93;;;;;;;9.89;52.69;95037.88;5050705;28;20188;-62
2023/03/04 05:02:40;;;;;;;0.15;0.15;;;;;;;9.88;52.57;95041.50;5051710;28;20786;-62
2023/03/04 05:05:08;;;;;;;0.20;0.20;;;;;;;10.41;51.48;95035.47;5048459;28;20192;-65
2023/03/04 05:07:35;;;;;;;3.97;0.93;;;;;;;10.68;50.50;95031.72;5048227;28;20238;-61
2023/03/04 05:10:03;;;;;;;0.45;0.45;;;;;;;10.51;51.41;95046.78;5065096;28;20223;-60
2023/03/04 05:12:30;;;;;;;1.65;1.42;;;;;;;10.56;50.77;95044.25;5065419;28;20207;-62
2023/03/04 05:14:57;;;;;;;4.72;2.47;;;;;;;10.67;51.07;95055.56;5057512;28;20228;-61
2023/03/04 05:17:23;;;;;;;0.73;0.17;;;;;;;10.74;50.71;95051.69;5071549;28;20203;-63
2023/03/04 05:19:50;;;;;;;0.82;0.82;;;;;;;10.90;50.83;95055.19;5052155;28;20961;-62
2023/03/04 05:22:17;;;;;;;1.95;1.48;;;;;;;10.82;50.82;95053.06;5055099;28;20196;-62
2023/03/04 05:24:44;;;;;;;0.10;0.10;;;;;;;10.79;50.52;95056.97;5052958;28;20220;-62
2023/03/04 05:27:11;;;;;;;3.47;1.95;;;;;;;10.73;51.16;95060.59;5051701;28;20196;-62
2023/03/04 05:29:38;;;;;;;2.17;0.90;;;;;;;10.90;50.80;95056.00;5067163;28;20227;-63
2023/03/04 05:32:05;;;;;;;0.20;0.20;;;;;;;11.00;50.49;95056.03;5068782;28;20646;-62
2023/03/04 05:34:32;;;;;;;0.20;0.20;;;;;;;10.91;51.08;95068.03;5065857;28;20334;-62
2023/03/04 05:36:58;;;;;;;0.63;0.63;;;;;;;11.17;50.29;95067.16;5056967;28;20226;-62
2023/03/04 05:39:25;;;;;;;0.03;0.03;;;;;;;11.15;50.05;95058.75;5057231;28;20211;-62
2023/03/04 05:41:52;;;;;;;0.20;0.20;;;;;;;11.27;49.81;95061.19;5068981;28;20207;-61
2023/03/04 05:44:19;;;;;;;1.33;1.25;;;;;;;11.21;50.54;95067.44;5062876;28;20192;-62
2023/03/04 05:46:46;;;;;;;0.75;0.75;;;;;;;11.06;50.57;95055.03;5058162;28;20243;-63
2023/03/04 05:49:13;;;;;;;1.05;0.95;;;;;;;10.82;51.07;95064.31;5062532;28;20219;-62
2023/03/04 05:51:39;;;;;;;2.55;2.35;;;;;;;10.97;50.83;95066.25;5067028;28;20543;-62
2023/03/04 05:54:06;;;;;;;0.13;0.13;;;;;;;11.09;50.75;95070.25;5053743;28;20581;-61
2023/03/04 05:56:33;;;;;;;26.03;1.77;;;;;;;11.12;50.73;95069.75;5053662;28;20652;-61
2023/03/04 05:59:00;;;;;;;0.60;0.60;;;;;;;10.87;51.61;95076.69;5054861;28;21023;-62
2023/03/04 06:01:27;;;;;;;7.05;1.95;;;;;;;10.83;51.53;95073.78;5051753;28;20204;-62
2023/03/04 06:03:54;;;;;;;1.15;0.85;;;;;;;10.76;52.29;95075.81;5055997;28;20698;-62
2023/03/04 06:06:21;;;;;;;1.50;0.80;;;;;;;10.75;52.25;95074.22;5059123;28;20815;-61
2023/03/04 06:08:48;;;;;;;3.30;1.88;;;;;;;10.79;52.47;95085.81;5051755;28;20824;-62
2023/03/04 06:11:14;;;;;;;8.27;3.75;;;;;;;10.91;52.07;95085.63;5065440;28;20310;-61
2023/03/04 06:13:41;;;;;;;0.40;0.40;;;;;;;10.80;52.21;95081.34;5052220;28;20200;-61
2023/03/04 06:16:09;;;;;;;0.30;0.30;;;;;;;10.98;52.50;95086.19;5052484;28;20193;-62
2023/03/04 06:18:35;;;;;;;1.00;1.00;;;;;;;10.35;54.29;95089.63;5066413;28;20196;-62
2023/03/04 06:21:03;;;;;;;0.90;0.75;;;;;;;10.75;53.28;95079.47;5053336;28;20197;-61
2023/03/04 06:23:30;;;;;;;0.30;0.30;;;;;;;10.58;54.70;95088.53;5058080;28;20207;-62
2023/03/04 06:25:58;;;;;;;4.35;3.08;;;;;;;11.05;53.15;95090.19;5058298;28;20486;-62
2023/03/04 06:28:26;;;;;;;0.70;0.70;;;;;;;10.91;52.10;95083.78;5052464;28;20200;-62
2023/03/04 06:30:54;;;;;;;1.57;1.47;;;;;;;11.00;51.82;95091.97;5054764;28;20790;-62
2023/03/04 06:33:22;;;;;;;3.60;0.65;;;;;;;10.71;52.33;95088.88;5051936;28;20439;-61
2023/03/04 06:35:54;;;;;;;10.30;2.43;;;;;;;10.92;51.84;95090.63;5050894;28;20200;-62
2023/03/04 06:38:21;;;;;;;0.30;0.30;;;;;;;10.95;51.93;95095.34;5057759;28;20482;-62
2023/03/04 06:40:48;;;;;;;2.43;2.07;;;;;;;11.16;51.21;95107.56;5063910;28;20446;-61
2023/03/04 06:43:15;;;;;;;0.80;0.70;;;;;;;11.11;51.26;95083.13;5067900;28;20822;-62
2023/03/04 06:45:42;;;;;;;0.43;0.43;;;;;;;11.30;51.03;95091.34;5062092;28;20481;-61
2023/03/04 06:48:09;;;;;;;1.83;1.73;;;;;;;11.35;50.68;95094.00;5051975;28;20544;-62
2023/03/04 06:50:35;;;;;;;1.33;1.05;;;;;;;11.37;50.70;95099.81;5051920;28;20550;-63
2023/03/04 06:53:02;;;;;;;3.03;2.73;;;;;;;11.42;50.67;95099.81;5051298;28;20299;-62
2023/03/04 06:55:29;;;;;;;3.20;1.70;;;;;;;11.55;50.08;95104.63;5054056;28;20458;-62
2023/03/04 06:57:56;;;;;;;3.58;1.85;;;;;;;11.42;50.33;95095.38;5067580;28;20562;-61
2023/03/04 07:00:23;;;;;;;4.47;2.33;;;;;;;11.49;50.42;95100.38;5050246;28;20255;-62
2023/03/04 07:02:50;;;;;;;2.57;1.40;;;;;;;11.34;50.55;95097.66;5063688;28;20499;-62
2023/03/04 07:05:20;;;;;;;0.40;0.40;;;;;;;11.57;50.71;95107.78;5059831;28;21061;-62
2023/03/04 07:07:48;;;;;;;0.73;0.73;;;;;;;11.72;51.80;95099.97;5052542;28;20541;-63
2023/03/04 07:10:17;;;;;;;4.37;2.13;;;;;;;11.83;50.63;95104.22;5058167;28;20487;-60
2023/03/04 07:12:43;;;;;;;0.83;0.83;;;;;;;11.81;50.23;95108.94;5054801;28;20451;-63
2023/03/04 07:15:10;;;;;;;1.00;1.00;;;;;;;11.76;49.59;95108.91;5065113;28;20477;-63
2023/03/04 07:17:37;;;;;;;0.30;0.30;;;;;;;11.73;50.21;95106.81;5053674;28;20439;-62
2023/03/04 07:20:05;;;;;;;1.40;1.30;;;;;;;11.52;50.37;95113.78;5051967;28;20509;-62
2023/03/04 07:22:31;;;;;;;0.30;0.30;;;;;;;11.43;50.54;95122.38;5058904;28;20538;-62
2023/03/04 07:24:58;;;;;;;1.03;0.97;;;;;;;11.39;50.67;95116.06;5059082;28;20447;-63
2023/03/04 07:27:25;;;;;;;0.30;0.30;;;;;;;11.49;50.40;95121.38;5055727;28;20450;-63
2023/03/04 07:29:52;;;;;;;3.73;1.67;;;;;;;11.47;50.60;95120.81;5050444;28;20509;-61
2023/03/04 07:32:19;;;;;;;0.83;0.83;;;;;;;11.54;50.54;95113.50;5049099;28;20519;-63
2023/03/04 07:34:46;;;;;;;0.27;0.27;;;;;;;11.72;50.24;95120.97;5049501;28;21309;-62
2023/03/04 07:37:12;;;;;;;0.47;0.47;;;;;;;11.69;50.15;95111.00;5060350;28;20897;-62
2023/03/04 07:39:39;;;;;;;0.90;0.90;;;;;;;11.66;50.41;95116.75;5064227;28;20525;-62
2023/03/04 07:42:06;;;;;;;1.60;1.50;;;;;;;11.71;50.11;95122.03;5056132;28;20454;-63
2023/03/04 07:44:38;;;;;;;0.37;0.37;;;;;;;11.71;50.34;95114.16;5052013;28;20446;-61
2023/03/04 07:47:05;;;;;;;0.17;0.17;;;;;;;11.70;50.15;95123.06;5048953;28;20483;-62
2023/03/04 07:49:31;;;;;;;0.53;0.47;;;;;;;11.69;50.38;95106.53;5049610;28;20470;-61
2023/03/04 07:52:03;;;;;;;0.57;0.57;;;;;;;11.67;49.96;95108.63;5049879;28;20853;-63
2023/03/04 07:54:30;;;;;;;3.23;2.17;;;;;;;11.65;50.56;95109.91;5062683;28;20454;-63
2023/03/04 07:56:57;;;;;;;0.73;0.73;;;;;;;11.55;50.42;95110.63;5062474;28;20502;-64
2023/03/04 07:59:24;;;;;;;0.10;0.10;;;;;;;11.56;50.24;95114.06;5064790;28;20474;-62
2023/03/04 08:01:51;;;;;;;0.97;0.90;;;;;;;11.46;50.68;95116.63;5050586;28;20439;-63
2023/03/04 08:04:17;;;;;;;0.60;0.60;;;;;;;11.87;50.31;95103.44;5051896;28;20541;-63
2023/03/04 08:06:44;;;;;;;1.70;0.83;;;;;;;11.88;50.37;95098.97;5048838;28;20530;-62
2023/03/04 08:09:12;;;;;;;4.17;3.30;;;;;;;12.10;49.81;95097.72;5067085;28;20473;-62
2023/03/04 08:11:39;;;;;;;0.20;0.20;;;;;;;12.18;49.40;95099.06;5055519;28;20496;-62
2023/03/04 08:14:09;;;;;;;2.57;2.37;;;;;;;12.10;49.85;95102.19;5070475;28;20449;-62
2023/03/04 08:16:36;;;;;;;1.70;1.60;;;;;;;12.02;50.10;95107.97;5061289;28;20931;-62
2023/03/04 08:19:04;;;;;;;1.43;1.33;;;;;;;11.94;49.77;95098.75;5064673;28;20478;-66
2023/03/04 08:21:32;;;;;;;0.40;0.40;;;;;;;12.10;49.32;95112.69;5068253;28;20516;-66
2023/03/04 08:24:06;;;;;;;0.63;0.63;;;;;;;12.23;49.65;95102.50;5067707;28;20901;-66
2023/03/04 08:26:41;;;;;;;0.30;0.30;;;;;;;12.26;49.49;95090.69;5053469;28;20442;-65
2023/03/04 08:29:13;;;;;;;0.90;0.90;;;;;;;12.18;49.39;95088.56;5059593;28;21043;-65
2023/03/04 08:31:41;;;;;;;0.93;0.90;;;;;;;12.10;49.09;95096.94;5062329;28;20493;-67
2023/03/04 08:34:09;;;;;;;1.27;1.23;;;;;;;12.20;48.99;95083.84;5057398;28;21116;-63
2023/03/04 08:36:36;;;;;;;0.53;0.47;;;;;;;12.27;48.48;95092.25;5064770;28;20521;-67
2023/03/04 08:39:04;;;;;;;2.10;2.00;;;;;;;12.27;48.61;95089.63;5057640;28;20470;-66
2023/03/04 08:41:31;;;;;;;4.30;1.57;;;;;;;12.42;48.75;95083.59;5065263;28;20442;-67
2023/03/04 08:43:59;;;;;;;0.17;0.17;;;;;;;12.41;48.50;95087.28;5058809;28;20435;-68
2023/03/04 08:46:26;;;;;;;0.80;0.80;;;;;;;11.72;48.37;94987.09;5054358;28;20552;-61
2023/03/04 08:48:53;;;;;;;1.10;1.00;;;;;;;12.35;48.61;95083.06;5062597;28;20437;-62
2023/03/04 08:51:20;;;;;;;1.30;1.03;;;;;;;12.51;48.12;95088.06;5071046;28;21027;-66
2023/03/04 08:53:47;;;;;;;0.60;0.47;;;;;;;12.50;47.62;95085.72;5067999;28;20457;-70
2023/03/04 08:56:14;;;;;;;0.80;0.77;;;;;;;11.85;48.65;95086.38;5053509;28;20443;-67
2023/03/04 08:58:41;;;;;;;0.20;0.20;;;;;;;12.05;48.50;95086.41;5060836;28;20523;-62
2023/03/04 09:01:11;;;;;;;0.30;0.30;;;;;;;12.16;48.02;95074.88;5071275;28;20438;-66
2023/03/04 09:03:38;;;;;;;0.90;0.90;;;;;;;12.37;48.11;95081.72;5071727;28;20563;-63
2023/03/04 09:06:07;;;;;;;2.03;1.73;;;;;;;12.55;48.34;95073.38;5059401;28;20444;-61
2023/03/04 09:08:34;;;;;;;0.70;0.70;;;;;;;12.77;48.36;95076.50;5063831;28;20462;-65
2023/03/04 09:11:02;;;;;;;1.03;0.93;;;;;;;12.73;47.55;95075.47;5058110;28;20489;-64
2023/03/04 09:13:30;;;;;;;0.70;0.70;;;;;;;12.98;47.98;95067.53;5069753;28;21764;-63
2023/03/04 09:15:57;;;;;;;2.67;2.47;;;;;;;13.11;48.50;95074.91;5065840;28;20439;-63
2023/03/04 09:18:25;;;;;;;5.30;2.10;;;;;;;13.30;48.32;95064.63;5056114;28;20957;-63
2023/03/04 09:20:53;;;;;;;3.40;2.87;;;;;;;13.41;48.08;95065.38;5058006;28;20443;-62
2023/03/04 09:23:22;;;;;;;4.43;3.00;;;;;;;13.42;46.70;95061.66;5058834;28;20478;-63
2023/03/04 09:25:49;;;;;;;1.80;1.50;;;;;;;13.39;46.25;95055.13;5054153;28;20446;-61
2023/03/04 09:28:16;;;;;;;6.27;5.70;;;;;;;13.56;46.80;95052.13;5060225;28;20500;-66
2023/03/04 09:30:44;;;;;;;1.20;1.10;;;;;;;13.67;46.76;95053.66;5051306;28;20490;-65
2023/03/04 09:33:11;;;;;;;5.07;4.67;;;;;;;13.69;46.90;95025.22;5072114;28;20526;-61
2023/03/04 09:35:38;;;;;;;3.20;2.73;;;;;;;14.03;46.17;95052.44;5052409;28;21132;-63
2023/03/04 09:38:06;;;;;;;0.63;0.63;;;;;;;14.03;45.40;95041.91;5056537;28;20832;-62
2023/03/04 09:40:40;;;;;;;1.70;0.93;;;;;;;14.20;45.74;95044.94;5051042;28;20451;-62
2023/03/04 09:43:16;;;;;;;0.40;0.40;;;;;;;14.31;44.66;95040.41;5054916;28;20568;-63
2023/03/04 09:45:49;;;;;;;1.13;1.13;;;;;;;14.37;44.72;95042.75;5054606;28;20448;-64
2023/03/04 09:48:22;;;;;;;2.23;2.03;;;;;;;14.64;44.16;95037.00;5058686;28;20489;-64
2023/03/04 09:51:20;;;;;;;2.80;2.43;;;;;;;14.66;43.92;95032.25;5058382;28;20871;-64
2023/03/04 09:54:00;;;;;;;2.90;2.70;;;;;;;14.59;43.32;95042.31;5065869;28;20442;-63
2023/03/04 09:56:27;;;;;;;3.00;2.70;;;;;;;14.51;43.61;95009.44;5051071;28;20453;-62
2023/03/04 09:59:16;;;;;;;1.17;1.00;;;;;;;14.67;43.60;95031.97;5062159;28;20475;-60
2023/03/04 10:01:55;;;;;;;2.30;1.00;;;;;;;14.28;43.62;95025.97;5051171;28;20439;-62
2023/03/04 10:04:36;;;;;;;1.80;1.07;;;;;;;13.77;44.37;95028.09;5058592;28;20961;-63
2023/03/04 10:07:05;;;;;;;1.17;0.70;;;;;;;13.76;44.10;95036.25;5056658;28;21062;-62
2023/03/04 10:09:45;;;;;;;1.90;1.23;;;;;;;13.33;45.16;95021.97;5057408;28;20439;-61
2023/03/04 10:12:20;;;;;;;9.73;2.10;;;;;;;13.12;44.79;95026.50;5056463;28;20983;-63
2023/03/04 10:15:05;;;;;;;1.53;1.40;;;;;;;13.50;44.24;95021.63;5056718;28;20441;-65
2023/03/04 10:17:41;;;;;;;3.27;3.07;;;;;;;13.67;43.77;95024.69;5062589;28;20446;-65
2023/03/04 10:20:26;;;;;;;0.87;0.83;;;;;;;14.01;44.24;95022.94;5051001;28;20474;-63
2023/03/04 10:23:18;;;;;;;3.20;2.07;;;;;;;13.79;43.54;95015.44;5067129;28;20450;-61
2023/03/04 10:25:45;;;;;;;1.57;1.20;;;;;;;14.01;43.58;95013.19;5069190;28;20646;-61
2023/03/04 10:28:18;;;;;;;1.60;1.50;;;;;;;13.97;44.34;95003.47;5061489;28;20435;-61
2023/03/04 10:31:09;;;;;;;0.40;0.40;;;;;;;13.98;43.50;95007.66;5063133;28;20509;-60
2023/03/04 10:33:38;;;;;;;0.60;0.60;;;;;;;13.65;44.18;95008.41;5053932;28;20497;-60
2023/03/04 10:36:14;;;;;;;1.83;1.67;;;;;;;13.92;43.59;95003.50;5050169;28;20485;-62
2023/03/04 10:38:41;;;;;;;0.10;0.10;;;;;;;14.01;42.99;94970.25;5052789;28;20438;-62
2023/03/04 10:41:21;;;;;;;10.57;2.73;;;;;;;14.43;43.26;94986.31;5050318;28;20937;-62
2023/03/04 10:44:08;;;;;;;0.70;0.50;;;;;;;14.42;42.40;94976.81;5078419;28;20444;-61
2023/03/04 10:46:39;;;;;;;1.67;1.57;;;;;;;14.52;42.73;94976.72;5058127;28;20549;-62
2023/03/04 10:49:09;;;;;;;3.50;1.17;;;;;;;14.78;42.66;94975.41;5071815;28;20447;-61
2023/03/04 10:51:46;;;;;;;0.67;0.67;;;;;;;14.76;42.19;94980.19;5056225;28;20575;-62
2023/03/04 10:54:23;;;;;;;0.37;0.37;;;;;;;14.90;42.13;94967.91;5068897;28;20857;-61
2023/03/04 10:57:03;;;;;;;0.20;0.20;;;;;;;15.27;40.81;94968.00;5055688;28;20949;-62
2023/03/04 10:59:45;;;;;;;0.00;0.00;;;;;;;14.88;40.42;94964.78;5053826;28;20453;-62
2023/03/04 11:02:23;;;;;;;0.67;0.67;;;;;;;15.14;41.93;94947.56;5058913;28;20442;-63
2023/03/04 11:05:23;;;;;;;1.07;0.97;;;;;;;15.57;40.46;94955.53;5058849;28;20448;-63
2023/03/04 11:07:54;;;;;;;0.87;0.87;;;;;;;15.36;40.04;94948.91;5063786;28;20474;-62
2023/03/04 11:10:35;;;;;;;3.40;1.93;;;;;;;15.42;40.49;94945.19;5067315;28;20461;-64
2023/03/04 11:13:10;;;;;;;0.20;0.20;;;;;;;15.22;40.71;94933.75;5059184;28;20971;-61
2023/03/04 11:15:51;;;;;;;1.00;0.97;;;;;;;15.30;41.22;94931.56;5049288;28;20447;-61
2023/03/04 11:18:29;;;;;;;0.47;0.47;;;;;;;15.11;40.86;94934.16;5068667;28;20578;-62
2023/03/04 11:20:58;;;;;;;0.50;0.50;;;;;;;15.44;40.63;94919.28;5037045;28;20463;-61
2023/03/04 11:23:31;;;;;;;0.37;0.37;;;;;;;14.94;41.31;94918.78;5044409;28;20503;-62
2023/03/04 11:26:03;;;;;;;0.93;0.93;;;;;;;15.35;40.46;94910.38;5030619;28;20734;-61
2023/03/04 11:28:43;;;;;;;0.10;0.10;;;;;;;14.71;40.46;94895.84;5044002;28;20550;-61
2023/03/04 11:31:15;;;;;;;1.07;1.03;;;;;;;14.54;41.28;94916.59;5048807;28;21064;-60
2023/03/04 11:33:54;;;;;;;0.67;0.67;;;;;;;15.01;40.57;94895.50;5049482;28;20489;-61
2023/03/04 11:36:57;;;;;;;1.40;1.30;;;;;;;15.39;41.15;94895.53;5033262;28;20452;-64
2023/03/04 11:39:37;;;;;;;0.37;0.30;;;;;;;15.73;40.08;94890.88;5045916;28;20494;-60
2023/03/04 11:42:20;;;;;;;0.93;0.60;;;;;;;15.63;40.03;94894.44;5035125;28;20449;-60
2023/03/04 11:44:47;;;;;;;0.77;0.77;;;;;;;15.76;40.29;94885.00;5035936;28;20605;-60